sensor_id;sensor_type;location;lat;lon;timestamp;pressure;altitude;pressure_sealevel;temperature;humidity
26775;BME280;14362;51.902;7.626;2023-02-10T00:03:37;102845.56;;;3.97;100.00
26775;BME280;14362;51.902;7.626;2023-02-10T00:07:39;102849.38;;;3.96;100.00
26775;BME280;14362;51.902;7.626;2023-02-10T00:11:40;102847.00;;;3.99;100.00
26775;BME280;14362;51.902;7.626;2023-02-10T00:15:59;102852.38;;;3.94;100.00
26775;BME280;14362;51.902;7.626;2023-02-10T00:20:01;102850.09;;;3.91;100.00
26775;BME280;14362;51.902;7.626;2023-02-10T00:24:03;102853.75;;;3.85;100.00
26775;BME280;14362;51.902;7.626;2023-02-10T00:28:04;102850.81;;;3.80;100.00
26775;BME280;14362;51.902;7.626;2023-02-10T00:32:08;102850.28;;;3.72;100.00
26775;BME280;14362;51.902;7.626;2023-02-10T00:36:12;102851.88;;;3.61;100.00
26775;BME280;14362;51.902;7.626;2023-02-10T00:40:15;102856.84;;;3.53;100.00
26775;BME280;14362;51.902;7.626;2023-02-10T00:44:16;102862.44;;;3.46;100.00
26775;BME280;14362;51.902;7.626;2023-02-10T00:48:19;102862.03;;;3.43;100.00
26775;BME280;14362;51.902;7.626;2023-02-10T00:52:21;102856.81;;;3.35;100.00
26775;BME280;14362;51.902;7.626;2023-02-10T00:56:22;102868.28;;;3.32;100.00
26775;BME280;14362;51.902;7.626;2023-02-10T01:00:24;102868.00;;;3.40;100.00
26775;BME280;14362;51.902;7.626;2023-02-10T01:04:27;102864.00;;;3.36;100.00
26775;BME280;14362;51.902;7.626;2023-02-10T01:08:28;102867.22;;;3.33;100.00
26775;BME280;14362;51.902;7.626;2023-02-10T01:12:30;102873.19;;;3.30;100.00
26775;BME280;14362;51.902;7.626;2023-02-10T01:16:31;102868.50;;;3.30;100.00
26775;BME280;14362;51.902;7.626;2023-02-10T01:20:37;102875.97;;;3.23;100.00
26775;BME280;14362;51.902;7.626;2023-02-10T01:24:39;102884.31;;;3.17;100.00
26775;BME280;14362;51.902;7.626;2023-02-10T01:28:41;102880.53;;;3.11;100.00
26775;BME280;14362;51.902;7.626;2023-02-10T01:32:42;102883.97;;;3.07;100.00
26775;BME280;14362;51.902;7.626;2023-02-10T01:36:45;102886.31;;;3.03;100.00
26775;BME280;14362;51.902;7.626;2023-02-10T01:40:47;102890.59;;;3.00;100.00
26775;BME280;14362;51.902;7.626;2023-02-10T01:45:17;102897.63;;;2.96;100.00
26775;BME280;14362;51.902;7.626;2023-02-10T01:49:22;102896.75;;;2.95;100.00
26775;BME280;14362;51.902;7.626;2023-02-10T01:53:26;102899.13;;;2.92;100.00
26775;BME280;14362;51.902;7.626;2023-02-10T01:57:28;102897.25;;;2.86;100.00
26775;BME280;14362;51.902;7.626;2023-02-10T02:01:30;102888.19;;;2.79;100.00
26775;BME280;14362;51.902;7.626;2023-02-10T02:05:33;102886.50;;;2.78;100.00
26775;BME280;14362;51.902;7.626;2023-02-10T02:09:37;102888.84;;;2.74;100.00
26775;BME280;14362;51.902;7.626;2023-02-10T02:14:00;102894.81;;;2.65;100.00
26775;BME280;14362;51.902;7.626;2023-02-10T02:18:11;102896.34;;;2.61;100.00
26775;BME280;14362;51.902;7.626;2023-02-10T02:22:37;102898.47;;;2.59;100.00
26775;BME280;14362;51.902;7.626;2023-02-10T02:26:54;102902.28;;;2.58;100.00
26775;BME280;14362;51.902;7.626;2023-02-10T02:35:24;102908.84;;;2.57;100.00
26775;BME280;14362;51.902;7.626;2023-02-10T02:39:27;102901.22;;;2.59;100.00
26775;BME280;14362;51.902;7.626;2023-02-10T02:43:29;102909.50;;;2.59;100.00
26775;BME280;14362;51.902;7.626;2023-02-10T02:47:41;102901.22;;;2.59;100.00
26775;BME280;14362;51.902;7.626;2023-02-10T02:51:51;102902.91;;;2.60;100.00
26775;BME280;14362;51.902;7.626;2023-02-10T02:56:02;102902.69;;;2.61;100.00
26775;BME280;14362;51.902;7.626;2023-02-10T03:00:08;102901.84;;;2.61;100.00
26775;BME280;14362;51.902;7.626;2023-02-10T03:04:11;102900.78;;;2.62;100.00
26775;BME280;14362;51.902;7.626;2023-02-10T03:08:15;102900.59;;;2.57;100.00
26775;BME280;14362;51.902;7.626;2023-02-10T03:12:17;102892.53;;;2.55;100.00
26775;BME280;14362;51.902;7.626;2023-02-10T03:16:18;102896.41;;;2.54;100.00
26775;BME280;14362;51.902;7.626;2023-02-10T03:20:20;102896.81;;;2.51;100.00
26775;BME280;14362;51.902;7.626;2023-02-10T03:24:22;102881.56;;;2.49;100.00
26775;BME280;14362;51.902;7.626;2023-02-10T03:28:24;102895.78;;;2.46;100.00
26775;BME280;14362;51.902;7.626;2023-02-10T03:32:25;102893.25;;;2.44;100.00
26775;BME280;14362;51.902;7.626;2023-02-10T03:36:27;102902.16;;;2.40;100.00
26775;BME280;14362;51.902;7.626;2023-02-10T03:40:29;102895.84;;;2.33;100.00
26775;BME280;14362;51.902;7.626;2023-02-10T03:44:31;102893.31;;;2.31;100.00
26775;BME280;14362;51.902;7.626;2023-02-10T03:48:32;102898.19;;;2.29;100.00
26775;BME280;14362;51.902;7.626;2023-02-10T03:52:34;102896.94;;;2.25;100.00
26775;BME280;14362;51.902;7.626;2023-02-10T03:56:36;102899.28;;;2.22;100.00
26775;BME280;14362;51.902;7.626;2023-02-10T04:00:38;102892.53;;;2.18;100.00
26775;BME280;14362;51.902;7.626;2023-02-10T04:04:39;102898.44;;;2.15;100.00
26775;BME280;14362;51.902;7.626;2023-02-10T04:08:41;102898.25;;;2.10;100.00
26775;BME280;14362;51.902;7.626;2023-02-10T04:12:44;102897.41;;;2.09;100.00
26775;BME280;14362;51.902;7.626;2023-02-10T04:16:45;102904.22;;;2.07;100.00
26775;BME280;14362;51.902;7.626;2023-02-10T04:20:47;102908.03;;;2.06;100.00
26775;BME280;14362;51.902;7.626;2023-02-10T04:24:51;102907.59;;;2.02;100.00
26775;BME280;14362;51.902;7.626;2023-02-10T04:28:53;102909.50;;;2.02;100.00
26775;BME280;14362;51.902;7.626;2023-02-10T04:32:55;102912.66;;;2.05;100.00
26775;BME280;14362;51.902;7.626;2023-02-10T04:36:56;102912.22;;;2.15;100.00
26775;BME280;14362;51.902;7.626;2023-02-10T04:40:58;102920.25;;;2.23;100.00
26775;BME280;14362;51.902;7.626;2023-02-10T04:45:01;102908.97;;;2.31;100.00
26775;BME280;14362;51.902;7.626;2023-02-10T04:49:02;102903.91;;;2.34;100.00
26775;BME280;14362;51.902;7.626;2023-02-10T04:53:04;102912.75;;;2.36;100.00
26775;BME280;14362;51.902;7.626;2023-02-10T04:57:05;102913.63;;;2.37;100.00
26775;BME280;14362;51.902;7.626;2023-02-10T05:01:08;102906.81;;;2.39;100.00
26775;BME280;14362;51.902;7.626;2023-02-10T05:05:11;102901.94;;;2.41;100.00
26775;BME280;14362;51.902;7.626;2023-02-10T05:09:12;102916.34;;;2.43;100.00
26775;BME280;14362;51.902;7.626;2023-02-10T05:13:14;102917.38;;;2.42;100.00
26775;BME280;14362;51.902;7.626;2023-02-10T05:17:17;102922.25;;;2.40;100.00
26775;BME280;14362;51.902;7.626;2023-02-10T05:21:18;102926.06;;;2.39;100.00
26775;BME280;14362;51.902;7.626;2023-02-10T05:25:20;102941.53;;;2.40;100.00
26775;BME280;14362;51.902;7.626;2023-02-10T05:29:21;102947.66;;;2.42;100.00
26775;BME280;14362;51.902;7.626;2023-02-10T05:33:24;102947.47;;;2.37;100.00
26775;BME280;14362;51.902;7.626;2023-02-10T05:37:25;102946.88;;;2.35;100.00
26775;BME280;14362;51.902;7.626;2023-02-10T05:41:27;102951.50;;;2.35;100.00
26775;BME280;14362;51.902;7.626;2023-02-10T05:45:28;102954.06;;;2.30;100.00
26775;BME280;14362;51.902;7.626;2023-02-10T05:49:31;102946.22;;;2.27;100.00
26775;BME280;14362;51.902;7.626;2023-02-10T05:53:33;102957.25;;;2.27;100.00
26775;BME280;14362;51.902;7.626;2023-02-10T05:57:34;102958.94;;;2.28;100.00
26775;BME280;14362;51.902;7.626;2023-02-10T06:01:36;102959.56;;;2.30;100.00
26775;BME280;14362;51.902;7.626;2023-02-10T06:05:39;102966.56;;;2.32;100.00
26775;BME280;14362;51.902;7.626;2023-02-10T06:09:40;102964.59;;;2.39;100.00
26775;BME280;14362;51.902;7.626;2023-02-10T06:13:42;102959.75;;;2.41;100.00
26775;BME280;14362;51.902;7.626;2023-02-10T06:17:43;102965.03;;;2.43;100.00
26775;BME280;14362;51.902;7.626;2023-02-10T06:21:46;102974.34;;;2.42;100.00
26775;BME280;14362;51.902;7.626;2023-02-10T06:25:47;102988.13;;;2.42;100.00
26775;BME280;14362;51.902;7.626;2023-02-10T06:29:49;102992.34;;;2.38;100.00
26775;BME280;14362;51.902;7.626;2023-02-10T06:33:50;102991.97;;;2.34;100.00
26775;BME280;14362;51.902;7.626;2023-02-10T06:37:53;102991.94;;;2.28;100.00
26775;BME280;14362;51.902;7.626;2023-02-10T06:41:55;102988.78;;;2.24;100.00
26775;BME280;14362;51.902;7.626;2023-02-10T06:45:58;102998.97;;;2.24;100.00
26775;BME280;14362;51.902;7.626;2023-02-10T06:49:59;102989.44;;;2.20;100.00
26775;BME280;14362;51.902;7.626;2023-02-10T06:54:02;103000.88;;;2.17;100.00
26775;BME280;14362;51.902;7.626;2023-02-10T06:58:03;102990.69;;;2.17;100.00
26775;BME280;14362;51.902;7.626;2023-02-10T07:02:05;102994.31;;;2.18;100.00
26775;BME280;14362;51.902;7.626;2023-02-10T07:06:09;102990.28;;;2.20;100.00
26775;BME280;14362;51.902;7.626;2023-02-10T07:10:12;102993.00;;;2.27;100.00
26775;BME280;14362;51.902;7.626;2023-02-10T07:14:14;102992.38;;;2.31;100.00
26775;BME280;14362;51.902;7.626;2023-02-10T07:18:15;102983.69;;;2.34;100.00
26775;BME280;14362;51.902;7.626;2023-02-10T07:22:17;102990.88;;;2.42;100.00
26775;BME280;14362;51.902;7.626;2023-02-10T07:26:19;102995.50;;;2.41;100.00
26775;BME280;14362;51.902;7.626;2023-02-10T07:30:21;103000.56;;;2.51;100.00
26775;BME280;14362;51.902;7.626;2023-02-10T07:34:22;103007.75;;;2.52;100.00
26775;BME280;14362;51.902;7.626;2023-02-10T07:38:24;102997.97;;;2.62;100.00
26775;BME280;14362;51.902;7.626;2023-02-10T07:42:27;103007.31;;;2.61;100.00
26775;BME280;14362;51.902;7.626;2023-02-10T07:46:28;103008.34;;;2.67;100.00
26775;BME280;14362;51.902;7.626;2023-02-10T07:50:30;103021.91;;;2.68;100.00
26775;BME280;14362;51.902;7.626;2023-02-10T07:54:31;103014.91;;;2.66;100.00
26775;BME280;14362;51.902;7.626;2023-02-10T07:58:35;103018.50;;;2.73;100.00
26775;BME280;14362;51.902;7.626;2023-02-10T08:02:37;103023.34;;;2.77;100.00
26775;BME280;14362;51.902;7.626;2023-02-10T08:06:38;103019.94;;;2.82;100.00
26775;BME280;14362;51.902;7.626;2023-02-10T08:10:40;103021.41;;;2.84;100.00
26775;BME280;14362;51.902;7.626;2023-02-10T08:14:43;103022.00;;;2.93;100.00
26775;BME280;14362;51.902;7.626;2023-02-10T08:18:44;103024.38;;;2.89;100.00
26775;BME280;14362;51.902;7.626;2023-02-10T08:22:45;103026.88;;;2.91;100.00
26775;BME280;14362;51.902;7.626;2023-02-10T08:26:47;103037.47;;;2.94;100.00
26775;BME280;14362;51.902;7.626;2023-02-10T08:30:50;103039.78;;;2.97;100.00
26775;BME280;14362;51.902;7.626;2023-02-10T08:34:51;103038.50;;;2.99;100.00
26775;BME280;14362;51.902;7.626;2023-02-10T08:38:53;103041.84;;;3.07;100.00
26775;BME280;14362;51.902;7.626;2023-02-10T08:42:54;103043.72;;;3.13;100.00
26775;BME280;14362;51.902;7.626;2023-02-10T08:46:57;103054.91;;;3.25;100.00
26775;BME280;14362;51.902;7.626;2023-02-10T08:50:58;103055.25;;;3.35;100.00
26775;BME280;14362;51.902;7.626;2023-02-10T08:55:00;103055.84;;;3.43;100.00
26775;BME280;14362;51.902;7.626;2023-02-10T08:59:02;103069.38;;;3.51;100.00
26775;BME280;14362;51.902;7.626;2023-02-10T09:03:05;103071.47;;;3.56;100.00
26775;BME280;14362;51.902;7.626;2023-02-10T09:07:07;103070.97;;;3.65;100.00
26775;BME280;14362;51.902;7.626;2023-02-10T09:11:09;103070.91;;;3.72;100.00
26775;BME280;14362;51.902;7.626;2023-02-10T09:15:10;103066.44;;;3.77;100.00
26775;BME280;14362;51.902;7.626;2023-02-10T09:19:13;103067.41;;;3.89;100.00
26775;BME280;14362;51.902;7.626;2023-02-10T09:23:15;103074.56;;;3.97;100.00
26775;BME280;14362;51.902;7.626;2023-02-10T09:27:16;103063.28;;;3.98;100.00
26775;BME280;14362;51.902;7.626;2023-02-10T09:31:18;103075.13;;;4.05;100.00
26775;BME280;14362;51.902;7.626;2023-02-10T09:35:21;103069.53;;;4.11;100.00
26775;BME280;14362;51.902;7.626;2023-02-10T09:39:22;103067.97;;;4.22;100.00
26775;BME280;14362;51.902;7.626;2023-02-10T09:43:51;103066.91;;;4.23;100.00
26775;BME280;14362;51.902;7.626;2023-02-10T09:47:59;103069.13;;;4.32;100.00
26775;BME280;14362;51.902;7.626;2023-02-10T09:52:14;103068.06;;;4.33;100.00
26775;BME280;14362;51.902;7.626;2023-02-10T09:56:18;103059.25;;;4.43;100.00
26775;BME280;14362;51.902;7.626;2023-02-10T10:00:25;103055.53;;;4.55;100.00
26775;BME280;14362;51.902;7.626;2023-02-10T10:04:29;103057.44;;;4.73;100.00
26775;BME280;14362;51.902;7.626;2023-02-10T10:08:42;103071.56;;;4.83;100.00
26775;BME280;14362;51.902;7.626;2023-02-10T10:12:46;103067.75;;;4.84;100.00
26775;BME280;14362;51.902;7.626;2023-02-10T10:17:01;103072.13;;;4.73;100.00
26775;BME280;14362;51.902;7.626;2023-02-10T10:21:10;103073.88;;;4.68;100.00
26775;BME280;14362;51.902;7.626;2023-02-10T10:25:26;103079.53;;;4.73;100.00
26775;BME280;14362;51.902;7.626;2023-02-10T10:29:39;103083.41;;;4.72;100.00
26775;BME280;14362;51.902;7.626;2023-02-10T10:33:49;103084.25;;;4.90;100.00
26775;BME280;14362;51.902;7.626;2023-02-10T10:37:51;103075.88;;;4.97;100.00
26775;BME280;14362;51.902;7.626;2023-02-10T10:41:55;103069.56;;;5.07;100.00
26775;BME280;14362;51.902;7.626;2023-02-10T10:45:59;103069.31;;;5.27;100.00
26775;BME280;14362;51.902;7.626;2023-02-10T10:50:05;103070.13;;;5.45;100.00
26775;BME280;14362;51.902;7.626;2023-02-10T10:54:12;103046.88;;;5.64;100.00
26775;BME280;14362;51.902;7.626;2023-02-10T10:58:24;103052.00;;;5.90;100.00
26775;BME280;14362;51.902;7.626;2023-02-10T11:02:26;103043.81;;;5.95;100.00
26775;BME280;14362;51.902;7.626;2023-02-10T11:06:33;103036.00;;;5.92;100.00
26775;BME280;14362;51.902;7.626;2023-02-10T11:10:38;103031.53;;;5.91;100.00
26775;BME280;14362;51.902;7.626;2023-02-10T11:14:51;103027.44;;;5.82;100.00
26775;BME280;14362;51.902;7.626;2023-02-10T11:18:56;103023.69;;;5.88;100.00
26775;BME280;14362;51.902;7.626;2023-02-10T11:22:59;103020.00;;;5.94;100.00
26775;BME280;14362;51.902;7.626;2023-02-10T11:27:03;103011.56;;;5.89;100.00
26775;BME280;14362;51.902;7.626;2023-02-10T11:31:20;102999.28;;;5.97;100.00
26775;BME280;14362;51.902;7.626;2023-02-10T11:35:24;103005.91;;;6.07;100.00
26775;BME280;14362;51.902;7.626;2023-02-10T11:39:28;103000.84;;;6.27;100.00
26775;BME280;14362;51.902;7.626;2023-02-10T11:43:34;103001.44;;;6.52;100.00
26775;BME280;14362;51.902;7.626;2023-02-10T11:47:38;103006.84;;;6.70;100.00
26775;BME280;14362;51.902;7.626;2023-02-10T11:51:39;102997.56;;;6.76;100.00
26775;BME280;14362;51.902;7.626;2023-02-10T11:55:44;102998.16;;;6.78;100.00
26775;BME280;14362;51.902;7.626;2023-02-10T11:59:54;102999.94;;;6.72;100.00
26775;BME280;14362;51.902;7.626;2023-02-10T12:04:02;102996.97;;;6.74;100.00
26775;BME280;14362;51.902;7.626;2023-02-10T12:08:14;102990.56;;;6.73;100.00
26775;BME280;14362;51.902;7.626;2023-02-10T12:12:28;102980.81;;;6.71;100.00
26775;BME280;14362;51.902;7.626;2023-02-10T12:16:36;102971.00;;;6.80;100.00
26775;BME280;14362;51.902;7.626;2023-02-10T12:20:52;102964.56;;;7.02;100.00
26775;BME280;14362;51.902;7.626;2023-02-10T12:25:06;102963.75;;;7.18;100.00
26775;BME280;14362;51.902;7.626;2023-02-10T12:29:18;102954.66;;;7.06;100.00
26775;BME280;14362;51.902;7.626;2023-02-10T12:33:36;102952.16;;;6.93;100.00
26775;BME280;14362;51.902;7.626;2023-02-10T12:37:51;102949.53;;;6.87;100.00
26775;BME280;14362;51.902;7.626;2023-02-10T12:42:03;102952.16;;;6.93;100.00
26775;BME280;14362;51.902;7.626;2023-02-10T12:46:18;102951.50;;;6.86;100.00
26775;BME280;14362;51.902;7.626;2023-02-10T12:50:46;102935.91;;;6.97;100.00
26775;BME280;14362;51.902;7.626;2023-02-10T12:54:53;102955.72;;;7.16;100.00
26775;BME280;14362;51.902;7.626;2023-02-10T12:59:01;102937.22;;;7.22;100.00
26775;BME280;14362;51.902;7.626;2023-02-10T13:03:07;102932.88;;;7.26;100.00
26775;BME280;14362;51.902;7.626;2023-02-10T13:07:19;102936.13;;;7.39;100.00
26775;BME280;14362;51.902;7.626;2023-02-10T13:11:33;102936.75;;;7.58;100.00
26775;BME280;14362;51.902;7.626;2023-02-10T13:15:38;102945.84;;;7.70;100.00
26775;BME280;14362;51.902;7.626;2023-02-10T13:19:50;102935.50;;;7.65;98.04
26775;BME280;14362;51.902;7.626;2023-02-10T13:24:03;102935.91;;;7.57;99.34
26775;BME280;14362;51.902;7.626;2023-02-10T13:28:16;102929.00;;;7.43;100.00
26775;BME280;14362;51.902;7.626;2023-02-10T13:32:29;102927.47;;;7.36;100.00
26775;BME280;14362;51.902;7.626;2023-02-10T13:36:34;102922.50;;;7.21;99.51
26775;BME280;14362;51.902;7.626;2023-02-10T13:40:46;102911.34;;;7.33;97.44
26775;BME280;14362;51.902;7.626;2023-02-10T13:44:57;102909.59;;;7.43;96.98
26775;BME280;14362;51.902;7.626;2023-02-10T13:49:00;102906.66;;;7.33;95.20
26775;BME280;14362;51.902;7.626;2023-02-10T13:53:25;102904.19;;;7.37;95.80
26775;BME280;14362;51.902;7.626;2023-02-10T13:57:31;102900.41;;;7.26;94.38
26775;BME280;14362;51.902;7.626;2023-02-10T14:01:37;102894.53;;;7.23;96.02
26775;BME280;14362;51.902;7.626;2023-02-10T14:05:51;102899.13;;;7.17;97.00
26775;BME280;14362;51.902;7.626;2023-02-10T14:10:00;102899.75;;;7.36;95.34
26775;BME280;14362;51.902;7.626;2023-02-10T14:14:04;102898.22;;;7.61;94.35
26775;BME280;14362;51.902;7.626;2023-02-10T14:18:24;102882.44;;;7.62;92.06
26775;BME280;14362;51.902;7.626;2023-02-10T14:22:30;102886.22;;;7.72;90.61
26775;BME280;14362;51.902;7.626;2023-02-10T14:26:34;102877.94;;;7.77;90.34
26775;BME280;14362;51.902;7.626;2023-02-10T14:30:41;102865.25;;;7.65;91.25
26775;BME280;14362;51.902;7.626;2023-02-10T14:34:55;102860.06;;;7.68;87.82
26775;BME280;14362;51.902;7.626;2023-02-10T14:38:58;102869.56;;;7.72;87.94
26775;BME280;14362;51.902;7.626;2023-02-10T14:43:01;102866.19;;;7.54;88.12
26775;BME280;14362;51.902;7.626;2023-02-10T14:47:03;102863.41;;;7.54;89.02
26775;BME280;14362;51.902;7.626;2023-02-10T14:51:16;102863.41;;;7.54;87.57
26775;BME280;14362;51.902;7.626;2023-02-10T14:55:23;102844.31;;;7.57;89.09
26775;BME280;14362;51.902;7.626;2023-02-10T14:59:27;102837.84;;;7.68;89.05
26775;BME280;14362;51.902;7.626;2023-02-10T15:03:30;102830.94;;;7.71;87.92
26775;BME280;14362;51.902;7.626;2023-02-10T15:07:36;102837.25;;;7.83;87.95
26775;BME280;14362;51.902;7.626;2023-02-10T15:11:41;102843.09;;;7.86;84.72
26775;BME280;14362;51.902;7.626;2023-02-10T15:16:02;102840.84;;;7.83;84.69
26775;BME280;14362;51.902;7.626;2023-02-10T15:20:21;102843.19;;;7.91;83.80
26775;BME280;14362;51.902;7.626;2023-02-10T15:24:27;102830.91;;;7.87;81.67
26775;BME280;14362;51.902;7.626;2023-02-10T15:28:30;102842.63;;;7.73;82.38
26775;BME280;14362;51.902;7.626;2023-02-10T15:32:32;102838.44;;;7.70;82.86
26775;BME280;14362;51.902;7.626;2023-02-10T15:36:35;102843.31;;;7.63;83.28
26775;BME280;14362;51.902;7.626;2023-02-10T15:40:52;102840.63;;;7.52;82.13
26775;BME280;14362;51.902;7.626;2023-02-10T15:45:03;102824.44;;;7.44;82.39
26775;BME280;14362;51.902;7.626;2023-02-10T15:49:10;102818.59;;;7.29;81.80
26775;BME280;14362;51.902;7.626;2023-02-10T15:53:18;102824.91;;;7.24;83.67
26775;BME280;14362;51.902;7.626;2023-02-10T15:57:23;102838.53;;;7.09;84.94
26775;BME280;14362;51.902;7.626;2023-02-10T16:01:24;102843.88;;;7.00;86.02
26775;BME280;14362;51.902;7.626;2023-02-10T16:05:26;102835.66;;;6.88;86.73
26775;BME280;14362;51.902;7.626;2023-02-10T16:09:28;102828.00;;;6.79;87.74
26775;BME280;14362;51.902;7.626;2023-02-10T16:13:31;102826.81;;;6.75;88.27
26775;BME280;14362;51.902;7.626;2023-02-10T16:17:38;102822.63;;;6.61;89.86
26775;BME280;14362;51.902;7.626;2023-02-10T16:21:40;102827.16;;;6.50;90.38
26775;BME280;14362;51.902;7.626;2023-02-10T16:25:41;102828.97;;;6.45;90.41
26775;BME280;14362;51.902;7.626;2023-02-10T16:29:44;102836.59;;;6.38;91.78
26775;BME280;14362;51.902;7.626;2023-02-10T16:33:47;102836.97;;;6.30;92.36
26775;BME280;14362;51.902;7.626;2023-02-10T16:37:48;102829.06;;;6.22;93.55
26775;BME280;14362;51.902;7.626;2023-02-10T16:41:51;102830.88;;;6.16;93.72
26775;BME280;14362;51.902;7.626;2023-02-10T16:45:54;102828.50;;;6.08;95.71
26775;BME280;14362;51.902;7.626;2023-02-10T16:49:56;102824.19;;;6.01;96.07
26775;BME280;14362;51.902;7.626;2023-02-10T16:53:57;102817.94;;;5.94;98.93
26775;BME280;14362;51.902;7.626;2023-02-10T16:57:59;102808.81;;;5.94;99.12
26775;BME280;14362;51.902;7.626;2023-02-10T17:02:01;102804.81;;;6.01;99.43
26775;BME280;14362;51.902;7.626;2023-02-10T17:06:03;102793.81;;;6.06;99.43
26775;BME280;14362;51.902;7.626;2023-02-10T17:10:07;102788.06;;;6.07;100.00
26775;BME280;14362;51.902;7.626;2023-02-10T17:14:09;102773.94;;;6.09;100.00
26775;BME280;14362;51.902;7.626;2023-02-10T17:18:13;102770.84;;;6.06;100.00
26775;BME280;14362;51.902;7.626;2023-02-10T17:22:15;102760.53;;;6.01;100.00
26775;BME280;14362;51.902;7.626;2023-02-10T17:26:16;102734.75;;;6.01;100.00
26775;BME280;14362;51.902;7.626;2023-02-10T17:30:19;102746.69;;;6.01;100.00
26775;BME280;14362;51.902;7.626;2023-02-10T17:34:22;102751.50;;;5.94;100.00
26775;BME280;14362;51.902;7.626;2023-02-10T17:38:24;102761.25;;;5.85;100.00
26775;BME280;14362;51.902;7.626;2023-02-10T17:42:43;102758.63;;;5.79;100.00
26775;BME280;14362;51.902;7.626;2023-02-10T17:46:45;102761.84;;;5.76;100.00
26775;BME280;14362;51.902;7.626;2023-02-10T17:50:50;102751.53;;;5.71;100.00
26775;BME280;14362;51.902;7.626;2023-02-10T17:54:51;102768.84;;;5.67;100.00
26775;BME280;14362;51.902;7.626;2023-02-10T17:58:52;102757.66;;;5.62;100.00
26775;BME280;14362;51.902;7.626;2023-02-10T18:02:54;102755.50;;;5.64;100.00
26775;BME280;14362;51.902;7.626;2023-02-10T18:06:57;102775.59;;;5.59;100.00
26775;BME280;14362;51.902;7.626;2023-02-10T18:10:58;102782.34;;;5.52;100.00
26775;BME280;14362;51.902;7.626;2023-02-10T18:14:59;102781.75;;;5.50;100.00
26775;BME280;14362;51.902;7.626;2023-02-10T18:19:01;102776.22;;;5.50;100.00
26775;BME280;14362;51.902;7.626;2023-02-10T18:23:04;102759.63;;;5.50;100.00
26775;BME280;14362;51.902;7.626;2023-02-10T18:27:06;102755.41;;;5.47;100.00
26775;BME280;14362;51.902;7.626;2023-02-10T18:31:08;102754.91;;;5.50;100.00
26775;BME280;14362;51.902;7.626;2023-02-10T18:35:12;102758.16;;;5.47;100.00
26775;BME280;14362;51.902;7.626;2023-02-10T18:39:15;102757.00;;;5.43;100.00
26775;BME280;14362;51.902;7.626;2023-02-10T18:43:16;102759.28;;;5.46;100.00
26775;BME280;14362;51.902;7.626;2023-02-10T18:47:18;102755.78;;;5.39;100.00
26775;BME280;14362;51.902;7.626;2023-02-10T18:51:19;102758.53;;;5.39;100.00
26775;BME280;14362;51.902;7.626;2023-02-10T18:55:23;102745.69;;;5.33;100.00
26775;BME280;14362;51.902;7.626;2023-02-10T18:59:25;102753.63;;;5.30;100.00
26775;BME280;14362;51.902;7.626;2023-02-10T19:03:26;102761.44;;;5.33;100.00
26775;BME280;14362;51.902;7.626;2023-02-10T19:07:28;102763.34;;;5.32;100.00
26775;BME280;14362;51.902;7.626;2023-02-10T19:11:32;102765.63;;;5.35;100.00
26775;BME280;14362;51.902;7.626;2023-02-10T19:15:34;102779.59;;;5.40;100.00
26775;BME280;14362;51.902;7.626;2023-02-10T19:19:35;102774.28;;;5.50;100.00
26775;BME280;14362;51.902;7.626;2023-02-10T19:23:38;102772.72;;;5.54;100.00
26775;BME280;14362;51.902;7.626;2023-02-10T19:27:41;102789.44;;;5.59;100.00
26775;BME280;14362;51.902;7.626;2023-02-10T19:31:43;102803.75;;;5.68;100.00
26775;BME280;14362;51.902;7.626;2023-02-10T19:35:47;102812.19;;;5.84;100.00
26775;BME280;14362;51.902;7.626;2023-02-10T19:39:49;102816.00;;;5.95;100.00
26775;BME280;14362;51.902;7.626;2023-02-10T19:43:52;102811.66;;;5.99;100.00
26775;BME280;14362;51.902;7.626;2023-02-10T19:47:54;102809.25;;;6.02;100.00
26775;BME280;14362;51.902;7.626;2023-02-10T19:51:55;102797.09;;;6.03;100.00
26775;BME280;14362;51.902;7.626;2023-02-10T19:55:57;102801.53;;;6.04;100.00
26775;BME280;14362;51.902;7.626;2023-02-10T19:59:59;102793.09;;;6.10;100.00
26775;BME280;14362;51.902;7.626;2023-02-10T20:04:02;102790.06;;;6.12;100.00
26775;BME280;14362;51.902;7.626;2023-02-10T20:08:06;102776.50;;;6.10;100.00
26775;BME280;14362;51.902;7.626;2023-02-10T20:12:07;102784.53;;;6.12;100.00
26775;BME280;14362;51.902;7.626;2023-02-10T20:16:11;102794.03;;;6.16;100.00
26775;BME280;14362;51.902;7.626;2023-02-10T20:20:12;102791.28;;;6.16;100.00
26775;BME280;14362;51.902;7.626;2023-02-10T20:24:14;102786.56;;;6.16;100.00
26775;BME280;14362;51.902;7.626;2023-02-10T20:28:15;102769.88;;;6.11;100.00
26775;BME280;14362;51.902;7.626;2023-02-10T20:32:18;102759.25;;;6.20;100.00
26775;BME280;14362;51.902;7.626;2023-02-10T20:36:20;102748.88;;;6.15;100.00
26775;BME280;14362;51.902;7.626;2023-02-10T20:40:21;102748.28;;;6.13;100.00
26775;BME280;14362;51.902;7.626;2023-02-10T20:44:23;102735.91;;;6.16;100.00
26775;BME280;14362;51.902;7.626;2023-02-10T20:48:26;102730.38;;;6.16;100.00
26775;BME280;14362;51.902;7.626;2023-02-10T20:52:27;102746.22;;;6.20;100.00
26775;BME280;14362;51.902;7.626;2023-02-10T20:56:29;102747.91;;;6.21;100.00
26775;BME280;14362;51.902;7.626;2023-02-10T21:00:31;102749.00;;;6.20;100.00
26775;BME280;14362;51.902;7.626;2023-02-10T21:04:34;102752.69;;;6.26;100.00
26775;BME280;14362;51.902;7.626;2023-02-10T21:08:36;102757.53;;;6.30;100.00
26775;BME280;14362;51.902;7.626;2023-02-10T21:12:37;102767.34;;;6.38;100.00
26775;BME280;14362;51.902;7.626;2023-02-10T21:16:39;102769.88;;;6.39;100.00
26775;BME280;14362;51.902;7.626;2023-02-10T21:20:42;102783.72;;;6.39;100.00
26775;BME280;14362;51.902;7.626;2023-02-10T21:24:43;102780.13;;;6.39;100.00
26775;BME280;14362;51.902;7.626;2023-02-10T21:28:44;102782.13;;;6.43;100.00